Kea, Greece
Current Conditions -  °F | °C
As of 8:50 PM on Friday 21 Nov 2014 (Local Time) from LGAV Reporting Station
Few Clouds Few Clouds  
Wind Chill: 54°   Ceiling: Unl
Heat Index: 54°   Visibility: 6mi
Dew Point: 37°   Wind: 5mph
Humidity: 54%   Direction: 330°NNW
Pressure: 30.12"   Gusts: NA
Location:  37.64°N, 24.34°E
Report Text: LGAV 211750Z 33004KT 320V020 9999 FEW025 12/03 Q1020 NOSIG
Loading
Personal Weather Stations






























Interactive Weather Map New forecast layout! Learn more

10-Day Weather Forecast

Advertisements
Track Severe Weather on mobile